createdAt,value
2023-02-07T00:00:54.628Z,-5.19
2023-02-07T00:03:22.620Z,-5.19
2023-02-07T00:05:50.402Z,-5.20
2023-02-07T00:08:18.173Z,-5.21
2023-02-07T00:10:47.416Z,-5.21
2023-02-07T00:13:15.197Z,-5.18
2023-02-07T00:15:42.958Z,-5.17
2023-02-07T00:18:10.661Z,-5.12
2023-02-07T00:20:38.388Z,-5.12
2023-02-07T00:23:06.207Z,-5.19
2023-02-07T00:25:33.919Z,-5.25
2023-02-07T00:28:03.131Z,-5.30
2023-02-07T00:30:31.105Z,-5.30
2023-02-07T00:32:59.310Z,-5.27
2023-02-07T00:35:27.067Z,-5.36
2023-02-07T00:37:55.490Z,-5.39
2023-02-07T00:40:23.774Z,-5.37
2023-02-07T00:42:51.479Z,-5.37
2023-02-07T00:45:20.569Z,-5.43
2023-02-07T00:47:48.315Z,-5.47
2023-02-07T00:50:16.107Z,-5.45
2023-02-07T00:52:43.826Z,-5.48
2023-02-07T00:55:11.608Z,-5.45
2023-02-07T00:57:39.508Z,-5.46
2023-02-07T01:00:09.694Z,-5.47
2023-02-07T01:02:38.773Z,-5.48
2023-02-07T01:05:07.573Z,-5.44
2023-02-07T01:07:35.472Z,-5.43
2023-02-07T01:10:03.312Z,-5.46
2023-02-07T01:12:34.447Z,-5.43
2023-02-07T01:15:02.207Z,-5.44
2023-02-07T01:17:29.942Z,-5.46
2023-02-07T01:20:00.122Z,-5.57
2023-02-07T01:22:28.186Z,-5.59
2023-02-07T01:24:56.930Z,-5.65
2023-02-07T01:27:25.454Z,-5.63
2023-02-07T01:29:53.185Z,-5.70
2023-02-07T01:32:20.898Z,-5.73
2023-02-07T01:34:48.929Z,-5.79
2023-02-07T01:37:18.177Z,-5.78
2023-02-07T01:39:47.406Z,-5.86
2023-02-07T01:42:15.840Z,-5.92
2023-02-07T01:45:13.048Z,-5.89
2023-02-07T01:47:40.972Z,-5.96
2023-02-07T01:50:10.225Z,-6.00
2023-02-07T01:52:42.224Z,-6.00
2023-02-07T01:55:15.588Z,-6.02
2023-02-07T01:57:45.022Z,-6.00
2023-02-07T02:00:15.592Z,-5.97
2023-02-07T02:02:44.099Z,-5.97
2023-02-07T02:05:12.380Z,-5.90
2023-02-07T02:07:44.496Z,-5.91
2023-02-07T02:10:16.147Z,-5.88
2023-02-07T02:13:12.588Z,-5.87
2023-02-07T02:15:45.922Z,-5.83
2023-02-07T02:18:34.489Z,-5.78
2023-02-07T02:21:34.783Z,-5.77
2023-02-07T02:24:34.153Z,-5.72
2023-02-07T02:27:11.510Z,-5.70
2023-02-07T02:30:11.646Z,-5.75
2023-02-07T02:32:57.895Z,-5.72
2023-02-07T02:35:33.551Z,-5.80
2023-02-07T02:38:11.345Z,-5.84
2023-02-07T02:40:45.265Z,-5.83
2023-02-07T02:43:20.439Z,-5.90
2023-02-07T02:45:50.883Z,-5.97
2023-02-07T02:48:20.781Z,-5.96
2023-02-07T02:50:50.374Z,-6.02
2023-02-07T02:53:18.249Z,-6.05
2023-02-07T02:56:14.824Z,-6.08
2023-02-07T02:59:05.567Z,-6.15
2023-02-07T03:01:48.897Z,-6.19
2023-02-07T03:04:34.402Z,-6.20
2023-02-07T03:07:22.724Z,-6.20
2023-02-07T03:09:59.830Z,-6.20
2023-02-07T03:12:35.179Z,-6.17
2023-02-07T03:15:08.459Z,-6.23
2023-02-07T03:17:44.648Z,-6.26
2023-02-07T03:20:20.381Z,-6.34
2023-02-07T03:22:49.657Z,-6.38
2023-02-07T03:25:19.768Z,-6.33
2023-02-07T03:27:49.682Z,-6.33
2023-02-07T03:30:21.690Z,-6.27
2023-02-07T03:32:52.710Z,-6.28
2023-02-07T03:35:26.029Z,-6.46
2023-02-07T03:37:57.264Z,-6.51
2023-02-07T03:40:28.964Z,-6.57
2023-02-07T03:43:03.974Z,-6.63
2023-02-07T03:45:31.717Z,-6.61
2023-02-07T03:47:59.492Z,-6.58
2023-02-07T03:50:28.679Z,-6.69
2023-02-07T03:52:56.438Z,-6.78
2023-02-07T03:55:24.241Z,-6.78
2023-02-07T03:57:51.952Z,-6.86
2023-02-07T04:00:20.339Z,-6.88
2023-02-07T04:02:48.181Z,-6.82
2023-02-07T04:05:16.130Z,-6.93
2023-02-07T04:07:45.309Z,-6.89
2023-02-07T04:10:13.369Z,-6.91
2023-02-07T04:12:41.120Z,-6.90
2023-02-07T04:15:10.290Z,-6.93
2023-02-07T04:17:38.720Z,-6.90
2023-02-07T04:20:07.988Z,-6.82
2023-02-07T04:22:35.758Z,-6.91
2023-02-07T04:25:05.095Z,-6.99
2023-02-07T04:27:32.887Z,-7.01
2023-02-07T04:30:00.636Z,-7.04
2023-02-07T04:32:28.384Z,-7.19
2023-02-07T04:34:56.109Z,-7.28
2023-02-07T04:37:23.869Z,-7.25
2023-02-07T04:39:51.607Z,-7.20
2023-02-07T04:42:20.790Z,-7.16
2023-02-07T04:44:48.487Z,-7.15
2023-02-07T04:47:16.227Z,-7.14
2023-02-07T04:49:43.916Z,-7.18
2023-02-07T04:52:11.620Z,-7.21
2023-02-07T04:54:39.495Z,-7.21
2023-02-07T04:57:07.199Z,-7.24
2023-02-07T04:59:36.319Z,-7.19
2023-02-07T05:02:04.051Z,-7.21
2023-02-07T05:04:31.809Z,-7.29
2023-02-07T05:06:59.724Z,-7.27
2023-02-07T05:09:27.630Z,-7.28
2023-02-07T05:11:55.381Z,-7.29
2023-02-07T05:14:23.278Z,-7.44
2023-02-07T05:16:52.375Z,-7.53
2023-02-07T05:19:20.279Z,-7.53
2023-02-07T05:21:48.060Z,-7.50
2023-02-07T05:24:18.238Z,-7.45
2023-02-07T05:26:46.005Z,-7.43
2023-02-07T05:29:13.746Z,-7.49
2023-02-07T05:31:58.736Z,-7.62
2023-02-07T05:34:27.859Z,-7.66
2023-02-07T05:36:55.598Z,-7.65
2023-02-07T05:39:23.382Z,-7.62
2023-02-07T05:41:51.770Z,-7.63
2023-02-07T05:44:19.582Z,-7.69
2023-02-07T05:46:47.356Z,-7.61
2023-02-07T05:49:15.258Z,-7.65
2023-02-07T05:51:44.409Z,-7.70
2023-02-07T05:54:12.138Z,-7.77
2023-02-07T05:56:39.877Z,-7.78
2023-02-07T05:59:07.554Z,-7.78
2023-02-07T06:01:37.305Z,-7.85
2023-02-07T06:04:05.392Z,-8.03
2023-02-07T06:06:33.297Z,-8.11
2023-02-07T06:09:04.023Z,-8.16
2023-02-07T06:11:31.805Z,-8.15
2023-02-07T06:13:59.593Z,-8.18
2023-02-07T06:16:27.384Z,-8.15
2023-02-07T06:18:55.081Z,-8.14
2023-02-07T06:21:22.818Z,-8.14
2023-02-07T06:23:51.702Z,-8.19
2023-02-07T06:26:22.940Z,-8.16
2023-02-07T06:28:50.638Z,-8.21
2023-02-07T06:31:23.979Z,-8.20
2023-02-07T06:33:51.736Z,-8.23
2023-02-07T06:36:19.470Z,-8.30
2023-02-07T06:38:49.112Z,-8.32
2023-02-07T06:41:16.938Z,-8.40
2023-02-07T06:43:49.036Z,-8.39
2023-02-07T06:46:16.878Z,-8.37
2023-02-07T06:48:44.693Z,-8.36
2023-02-07T06:51:12.529Z,-8.34
2023-02-07T06:53:40.386Z,-8.25
2023-02-07T06:56:08.846Z,-8.20
2023-02-07T06:58:36.606Z,-8.18
2023-02-07T07:01:06.268Z,-8.03
2023-02-07T07:03:33.978Z,-7.98
2023-02-07T07:06:01.851Z,-7.92
2023-02-07T07:08:30.114Z,-7.90
2023-02-07T07:10:58.172Z,-7.85
2023-02-07T07:13:26.081Z,-7.67
2023-02-07T07:15:53.853Z,-7.56
2023-02-07T07:18:23.108Z,-7.50
2023-02-07T07:20:54.356Z,-7.49
2023-02-07T07:23:22.507Z,-7.46
2023-02-07T07:25:50.512Z,-7.38
2023-02-07T07:28:18.372Z,-7.25
2023-02-07T07:30:46.143Z,-7.13
2023-02-07T07:33:14.102Z,-7.02
2023-02-07T07:35:43.258Z,-6.88
2023-02-07T07:38:10.999Z,-6.76
2023-02-07T07:40:39.079Z,-6.59
2023-02-07T07:43:06.900Z,-6.48
2023-02-07T07:45:34.635Z,-6.37
2023-02-07T07:48:02.403Z,-6.20
2023-02-07T07:50:30.171Z,-6.03
2023-02-07T07:52:59.303Z,-5.95
2023-02-07T07:55:27.096Z,-5.87
2023-02-07T07:57:54.864Z,-5.81
2023-02-07T08:00:22.615Z,-5.70
2023-02-07T08:02:50.374Z,-5.64
2023-02-07T08:05:18.318Z,-5.56
2023-02-07T08:07:46.068Z,-5.45
2023-02-07T08:10:15.337Z,-5.37
2023-02-07T08:12:44.183Z,-5.32
2023-02-07T08:15:13.923Z,-5.22
2023-02-07T08:17:41.693Z,-5.13
2023-02-07T08:20:11.769Z,-5.00
2023-02-07T08:22:39.757Z,-4.95
2023-02-07T08:25:08.463Z,-4.86
2023-02-07T08:27:37.707Z,-4.74
2023-02-07T08:30:06.108Z,-4.66
2023-02-07T08:32:33.939Z,-4.59
2023-02-07T08:35:01.888Z,-4.48
2023-02-07T08:37:29.706Z,-4.41
2023-02-07T08:39:58.132Z,-4.31
2023-02-07T08:42:25.968Z,-4.21
2023-02-07T08:44:56.845Z,-4.05
2023-02-07T08:47:24.638Z,-3.86
2023-02-07T08:49:52.373Z,-3.69
2023-02-07T08:52:20.293Z,-3.52
2023-02-07T08:54:48.028Z,-3.35
2023-02-07T08:57:16.173Z,-3.19
2023-02-07T08:59:44.007Z,-3.03
2023-02-07T09:02:13.432Z,-2.84
2023-02-07T09:04:43.335Z,-2.73
2023-02-07T09:07:11.695Z,-2.57
2023-02-07T09:09:39.737Z,-2.27
2023-02-07T09:12:08.432Z,-2.05
2023-02-07T09:14:36.582Z,-1.90
2023-02-07T09:17:04.827Z,-1.83
2023-02-07T09:19:34.177Z,-1.66
2023-02-07T09:22:01.927Z,-1.51
2023-02-07T09:24:29.709Z,-1.22
2023-02-07T09:26:57.489Z,-0.98
2023-02-07T09:29:25.283Z,-0.88
2023-02-07T09:31:53.666Z,-0.87
2023-02-07T09:34:21.664Z,-0.73
2023-02-07T09:36:51.046Z,-0.75
2023-02-07T09:39:21.616Z,-0.62
2023-02-07T09:42:03.428Z,-0.49
2023-02-07T09:44:49.002Z,-0.55
2023-02-07T09:47:20.073Z,-0.42
2023-02-07T09:49:52.317Z,-0.12
2023-02-07T09:52:26.623Z,-0.07
2023-02-07T09:54:57.886Z,0.23
2023-02-07T09:57:31.713Z,0.11
2023-02-07T10:00:05.038Z,0.26
2023-02-07T10:02:39.951Z,0.63
2023-02-07T10:05:16.768Z,0.95
2023-02-07T10:07:47.282Z,0.85
2023-02-07T10:10:16.884Z,1.29
2023-02-07T10:13:21.856Z,1.99
2023-02-07T10:16:05.871Z,2.48
2023-02-07T10:18:46.108Z,2.70
2023-02-07T10:21:21.377Z,3.01
2023-02-07T10:24:03.738Z,3.57
2023-02-07T10:26:38.715Z,3.54
2023-02-07T10:29:23.771Z,3.90
2023-02-07T10:31:54.760Z,4.04
2023-02-07T10:34:24.269Z,4.23
2023-02-07T10:36:56.395Z,4.26
2023-02-07T10:39:30.986Z,4.71
2023-02-07T10:41:59.377Z,4.61
2023-02-07T10:44:28.579Z,4.42
2023-02-07T10:47:01.385Z,4.44
2023-02-07T10:49:31.489Z,4.93
2023-02-07T10:52:03.641Z,5.14
2023-02-07T10:54:51.451Z,5.02
2023-02-07T10:57:21.198Z,5.34
2023-02-07T10:59:50.591Z,4.94
2023-02-07T11:02:48.376Z,4.60
2023-02-07T11:05:40.571Z,4.82
2023-02-07T11:08:22.737Z,5.19
2023-02-07T11:10:53.682Z,5.38
2023-02-07T11:13:23.529Z,5.83
2023-02-07T11:15:56.859Z,6.10
2023-02-07T11:18:33.740Z,6.12
2023-02-07T11:21:01.665Z,5.66
2023-02-07T11:23:29.531Z,5.84
2023-02-07T11:25:58.742Z,5.86
2023-02-07T11:28:30.657Z,5.42
2023-02-07T11:31:03.284Z,5.87
2023-02-07T11:33:33.889Z,6.32
2023-02-07T11:36:04.670Z,5.73
2023-02-07T11:38:36.412Z,5.23
2023-02-07T11:41:06.970Z,4.96
2023-02-07T11:43:36.472Z,5.46
2023-02-07T11:46:10.416Z,5.30
2023-02-07T11:48:40.661Z,5.27
2023-02-07T11:51:11.146Z,5.30
2023-02-07T11:53:41.432Z,5.46
2023-02-07T11:56:23.976Z,5.71
2023-02-07T11:58:53.009Z,5.56
2023-02-07T12:01:29.720Z,5.66
2023-02-07T12:04:01.729Z,6.11
2023-02-07T12:06:37.155Z,5.98
2023-02-07T12:09:21.605Z,6.43
2023-02-07T12:11:53.239Z,6.38
2023-02-07T12:14:28.797Z,6.40
2023-02-07T12:16:57.428Z,6.40
2023-02-07T12:19:30.853Z,6.91
2023-02-07T12:22:04.618Z,6.26
2023-02-07T12:24:37.983Z,6.70
2023-02-07T12:27:15.258Z,6.54
2023-02-07T12:29:57.478Z,6.68
2023-02-07T12:32:34.474Z,6.88
2023-02-07T12:35:12.187Z,7.26
2023-02-07T12:37:46.230Z,7.48
2023-02-07T12:40:20.423Z,7.69
2023-02-07T12:42:57.535Z,7.56
2023-02-07T12:45:41.716Z,7.53
2023-02-07T12:48:21.316Z,7.43
2023-02-07T12:51:10.369Z,6.84
2023-02-07T12:53:53.507Z,6.19
2023-02-07T12:56:37.709Z,6.79
2023-02-07T12:59:15.435Z,6.89
2023-02-07T13:01:48.336Z,6.94
2023-02-07T13:04:48.149Z,7.03
2023-02-07T13:07:26.455Z,7.03
2023-02-07T13:10:02.015Z,7.01
2023-02-07T13:12:32.571Z,7.09
2023-02-07T13:15:11.469Z,6.63
2023-02-07T13:17:50.520Z,6.61
2023-02-07T13:20:28.706Z,6.47
2023-02-07T13:23:00.402Z,6.85
2023-02-07T13:25:31.357Z,6.63
2023-02-07T13:28:02.133Z,6.53
2023-02-07T13:30:32.011Z,6.47
2023-02-07T13:33:05.699Z,6.83
2023-02-07T13:35:38.106Z,6.72
2023-02-07T13:38:17.850Z,6.62
2023-02-07T13:40:54.693Z,6.43
2023-02-07T13:43:35.496Z,6.77
2023-02-07T13:46:13.507Z,6.21
2023-02-07T13:48:49.648Z,6.44
2023-02-07T13:51:24.529Z,6.03
2023-02-07T13:54:00.479Z,5.81
2023-02-07T13:56:51.130Z,5.69
2023-02-07T13:59:41.132Z,5.72
2023-02-07T14:02:18.440Z,5.87
2023-02-07T14:04:51.737Z,6.56
2023-02-07T14:07:26.055Z,7.78
2023-02-07T14:09:56.891Z,9.17
2023-02-07T14:12:27.570Z,11.35
2023-02-07T14:15:02.764Z,13.15
2023-02-07T14:18:01.227Z,13.47
2023-02-07T14:20:49.789Z,14.31
2023-02-07T14:23:20.247Z,15.56
2023-02-07T14:25:50.192Z,16.37
2023-02-07T14:28:32.052Z,16.21
2023-02-07T14:31:02.429Z,15.33
2023-02-07T14:33:35.126Z,14.89
2023-02-07T14:36:29.733Z,15.04
2023-02-07T14:39:04.512Z,15.78
2023-02-07T14:41:34.677Z,15.64
2023-02-07T14:44:10.156Z,14.79
2023-02-07T14:46:41.809Z,14.06
2023-02-07T14:49:17.155Z,11.77
2023-02-07T14:51:48.044Z,8.63
2023-02-07T14:54:20.038Z,6.01
2023-02-07T14:56:53.128Z,4.57
2023-02-07T14:59:29.790Z,3.25
2023-02-07T15:01:59.270Z,2.41
2023-02-07T15:04:31.051Z,1.74
2023-02-07T15:07:00.257Z,1.46
2023-02-07T15:09:29.040Z,1.21
2023-02-07T15:12:22.365Z,1.06
2023-02-07T15:14:56.988Z,0.88
2023-02-07T15:17:43.365Z,0.77
2023-02-07T15:20:16.855Z,0.75
2023-02-07T15:22:49.945Z,0.62
2023-02-07T15:25:18.438Z,0.57
2023-02-07T15:28:00.547Z,0.51
2023-02-07T15:30:28.783Z,0.37
2023-02-07T15:32:56.711Z,0.27
2023-02-07T15:35:28.244Z,0.19
2023-02-07T15:38:14.359Z,0.12
2023-02-07T15:40:42.582Z,0.07
2023-02-07T15:43:26.249Z,-0.03
2023-02-07T15:46:08.572Z,-0.07
2023-02-07T15:48:48.427Z,-0.10
2023-02-07T15:51:19.212Z,-0.13
2023-02-07T15:53:51.390Z,-0.18
2023-02-07T15:56:19.836Z,-0.31
2023-02-07T15:58:49.688Z,-0.39
2023-02-07T16:01:24.350Z,-0.48
2023-02-07T16:03:52.965Z,-0.52
2023-02-07T16:06:23.881Z,-0.65
2023-02-07T16:08:54.509Z,-0.77
2023-02-07T16:11:41.365Z,-0.77
2023-02-07T16:14:21.643Z,-0.88
2023-02-07T16:16:54.663Z,-0.92
2023-02-07T16:19:27.420Z,-1.14
2023-02-07T16:22:03.870Z,-1.24
2023-02-07T16:24:35.403Z,-1.36
2023-02-07T16:27:03.849Z,-1.42
2023-02-07T16:29:35.065Z,-1.56
2023-02-07T16:32:03.147Z,-1.63
2023-02-07T16:34:30.977Z,-1.77
2023-02-07T16:37:00.314Z,-1.75
2023-02-07T16:39:28.248Z,-1.85
2023-02-07T16:41:58.065Z,-1.90
2023-02-07T16:44:28.248Z,-1.92
2023-02-07T16:46:56.058Z,-1.91
2023-02-07T16:49:26.802Z,-1.99
2023-02-07T16:51:54.936Z,-1.93
2023-02-07T16:54:24.231Z,-1.99
2023-02-07T16:56:55.094Z,-2.02
2023-02-07T16:59:23.718Z,-2.09
2023-02-07T17:01:54.019Z,-2.15
2023-02-07T17:04:22.772Z,-2.23
2023-02-07T17:06:52.955Z,-2.22
2023-02-07T17:09:22.525Z,-2.28
2023-02-07T17:11:54.948Z,-2.28
2023-02-07T17:14:23.466Z,-2.30
2023-02-07T17:16:54.742Z,-2.33
2023-02-07T17:19:24.617Z,-2.36
2023-02-07T17:21:53.768Z,-2.39
2023-02-07T17:24:21.660Z,-2.43
2023-02-07T17:26:54.508Z,-2.50
2023-02-07T17:29:23.042Z,-2.56
2023-02-07T17:31:51.148Z,-2.61
2023-02-07T17:34:19.164Z,-2.64
2023-02-07T17:36:49.382Z,-2.66
2023-02-07T17:39:19.072Z,-2.69
2023-02-07T17:41:46.854Z,-2.74
2023-02-07T17:44:17.011Z,-2.75
2023-02-07T17:46:45.024Z,-2.75
2023-02-07T17:49:15.176Z,-2.82
2023-02-07T17:51:43.014Z,-2.86
2023-02-07T17:54:11.037Z,-2.90
2023-02-07T17:56:38.967Z,-2.97
2023-02-07T17:59:10.033Z,-2.99
2023-02-07T18:01:39.197Z,-3.03
2023-02-07T18:04:07.240Z,-3.07
2023-02-07T18:06:34.933Z,-3.06
2023-02-07T18:09:08.840Z,-3.08
2023-02-07T18:11:36.780Z,-3.11
2023-02-07T18:14:07.315Z,-3.16
2023-02-07T18:16:35.205Z,-3.12
2023-02-07T18:19:05.108Z,-3.12
2023-02-07T18:21:36.029Z,-3.17
2023-02-07T18:24:06.709Z,-3.20
2023-02-07T18:26:34.512Z,-3.25
2023-02-07T18:29:02.250Z,-3.30
2023-02-07T18:31:30.094Z,-3.31
2023-02-07T18:33:58.062Z,-3.35
2023-02-07T18:36:29.914Z,-3.43
2023-02-07T18:38:58.926Z,-3.46
2023-02-07T18:41:36.373Z,-3.48
2023-02-07T18:44:04.191Z,-3.45
2023-02-07T18:46:32.505Z,-3.48
2023-02-07T18:49:00.622Z,-3.53
2023-02-07T18:51:30.053Z,-3.51
2023-02-07T18:53:57.791Z,-3.60
2023-02-07T18:56:27.299Z,-3.64
2023-02-07T18:58:56.807Z,-3.64
2023-02-07T19:01:26.099Z,-3.73
2023-02-07T19:03:56.322Z,-3.77
2023-02-07T19:06:25.525Z,-3.87
2023-02-07T19:08:54.957Z,-3.81
2023-02-07T19:11:23.151Z,-3.85
2023-02-07T19:13:50.954Z,-3.89
2023-02-07T19:16:21.431Z,-3.96
2023-02-07T19:18:49.552Z,-4.02
2023-02-07T19:21:21.674Z,-4.01
2023-02-07T19:23:49.711Z,-4.10
2023-02-07T19:26:18.833Z,-4.12
2023-02-07T19:28:46.658Z,-4.13
2023-02-07T19:31:18.040Z,-4.13
2023-02-07T19:33:46.397Z,-4.22
2023-02-07T19:36:14.624Z,-4.16
2023-02-07T19:38:42.791Z,-4.26
2023-02-07T19:41:10.562Z,-4.31
2023-02-07T19:43:39.755Z,-4.35
2023-02-07T19:46:07.879Z,-4.42
2023-02-07T19:48:38.926Z,-4.51
2023-02-07T19:51:09.084Z,-4.58
2023-02-07T19:53:40.351Z,-4.61
2023-02-07T19:56:10.834Z,-4.75
2023-02-07T19:58:43.626Z,-4.77
2023-02-07T20:01:12.633Z,-4.78
2023-02-07T20:03:40.639Z,-4.75
2023-02-07T20:06:12.241Z,-4.76
2023-02-07T20:08:41.797Z,-4.77
2023-02-07T20:11:11.711Z,-4.77
2023-02-07T20:13:43.801Z,-4.71
2023-02-07T20:16:14.255Z,-4.77
2023-02-07T20:18:42.163Z,-4.73
2023-02-07T20:21:12.785Z,-4.80
2023-02-07T20:23:42.107Z,-4.84
2023-02-07T20:26:18.720Z,-4.92
2023-02-07T20:28:48.643Z,-4.91
2023-02-07T20:31:18.333Z,-4.99
2023-02-07T20:33:46.926Z,-5.07
2023-02-07T20:36:17.385Z,-5.10
2023-02-07T20:38:46.441Z,-5.20
2023-02-07T20:41:16.178Z,-5.25
2023-02-07T20:43:44.543Z,-5.26
2023-02-07T20:46:17.376Z,-5.30
2023-02-07T20:48:45.249Z,-5.26
2023-02-07T20:51:14.320Z,-5.32
2023-02-07T20:53:44.377Z,-5.36
2023-02-07T20:56:17.241Z,-5.39
2023-02-07T20:58:46.937Z,-5.50
2023-02-07T21:01:17.934Z,-5.54
2023-02-07T21:03:46.922Z,-5.62
2023-02-07T21:06:14.717Z,-5.73
2023-02-07T21:08:43.005Z,-5.80
2023-02-07T21:11:11.612Z,-5.86
2023-02-07T21:13:41.305Z,-5.91
2023-02-07T21:16:09.516Z,-5.98
2023-02-07T21:18:38.691Z,-6.08
2023-02-07T21:21:07.841Z,-6.20
2023-02-07T21:23:36.999Z,-6.25
2023-02-07T21:26:06.215Z,-6.29
2023-02-07T21:28:34.314Z,-6.27
2023-02-07T21:31:06.878Z,-6.35
2023-02-07T21:33:34.712Z,-6.43
2023-02-07T21:36:09.742Z,-6.44
2023-02-07T21:38:37.870Z,-6.47
2023-02-07T21:41:07.166Z,-6.54
2023-02-07T21:43:35.693Z,-6.55
2023-02-07T21:46:05.794Z,-6.54
2023-02-07T21:48:35.654Z,-6.53
2023-02-07T21:51:05.741Z,-6.44
2023-02-07T21:53:35.026Z,-6.46
2023-02-07T21:56:03.644Z,-6.50
2023-02-07T21:58:32.017Z,-6.52
2023-02-07T22:01:07.205Z,-6.55
2023-02-07T22:03:34.798Z,-6.67
2023-02-07T22:06:02.610Z,-6.71
2023-02-07T22:08:30.420Z,-6.79
2023-02-07T22:11:03.522Z,-6.84
2023-02-07T22:13:31.921Z,-6.86
2023-02-07T22:15:59.761Z,-6.86
2023-02-07T22:18:27.927Z,-6.92
2023-02-07T22:20:55.789Z,-6.95
2023-02-07T22:23:23.515Z,-7.00
2023-02-07T22:25:55.775Z,-7.09
2023-02-07T22:28:31.153Z,-7.06
2023-02-07T22:31:00.785Z,-7.10
2023-02-07T22:33:28.690Z,-7.14
2023-02-07T22:35:56.333Z,-7.19
2023-02-07T22:38:24.082Z,-7.20
2023-02-07T22:40:54.636Z,-7.25
2023-02-07T22:43:22.375Z,-7.30
2023-02-07T22:45:51.492Z,-7.30
2023-02-07T22:48:19.187Z,-7.34
2023-02-07T22:50:46.889Z,-7.33
2023-02-07T22:53:15.688Z,-7.36
2023-02-07T23:01:24.921Z,-7.59
2023-02-07T23:03:53.327Z,-7.63
2023-02-07T23:06:21.815Z,-7.75
2023-02-07T23:08:50.660Z,-7.75
2023-02-07T23:11:20.357Z,-7.82
2023-02-07T23:13:48.131Z,-7.84
2023-02-07T23:16:18.174Z,-7.81
2023-02-07T23:18:47.522Z,-7.84
2023-02-07T23:21:17.388Z,-7.91
2023-02-07T23:23:45.582Z,-7.92
2023-02-07T23:26:16.360Z,-7.93
2023-02-07T23:28:45.053Z,-8.00
2023-02-07T23:31:17.550Z,-7.98
2023-02-07T23:33:45.323Z,-8.03
2023-02-07T23:36:16.764Z,-8.00
2023-02-07T23:38:45.737Z,-8.00
2023-02-07T23:41:13.558Z,-8.07
2023-02-07T23:43:41.296Z,-8.09
2023-02-07T23:46:09.864Z,-8.10
2023-02-07T23:48:38.819Z,-8.18
2023-02-07T23:51:08.005Z,-8.18
2023-02-07T23:53:37.075Z,-8.27
2023-02-07T23:56:06.559Z,-8.27
2023-02-07T23:58:39.177Z,-8.38
